createdAt,value
2023-03-14T00:02:02.924Z,23.88
2023-03-14T00:04:31.137Z,23.48
2023-03-14T00:07:00.161Z,19.65
2023-03-14T00:09:31.190Z,17.75
2023-03-14T00:12:00.326Z,12.63
2023-03-14T00:14:28.956Z,13.05
2023-03-14T00:17:01.572Z,15.73
2023-03-14T00:19:30.062Z,22.38
2023-03-14T00:21:58.072Z,18.35
2023-03-14T00:24:25.992Z,19.15
2023-03-14T00:26:54.725Z,46.72
2023-03-14T00:31:54.457Z,30.42
2023-03-14T00:34:22.575Z,48.22
2023-03-14T00:36:51.068Z,37.50
2023-03-14T00:39:20.245Z,36.63
2023-03-14T00:41:48.789Z,39.38
2023-03-14T00:44:16.888Z,53.38
2023-03-14T00:46:44.810Z,49.67
2023-03-14T00:49:12.614Z,63.20
2023-03-14T00:51:40.942Z,60.40
2023-03-14T00:54:09.686Z,63.25
2023-03-14T00:56:38.595Z,68.10
2023-03-14T01:01:40.433Z,51.45
2023-03-14T01:04:08.918Z,52.53
2023-03-14T01:06:37.849Z,47.97
2023-03-14T01:09:06.037Z,46.85
2023-03-14T01:11:38.269Z,43.65
2023-03-14T01:14:06.757Z,49.53
2023-03-14T01:16:36.345Z,42.40
2023-03-14T01:19:04.536Z,42.35
2023-03-14T01:21:34.980Z,38.45
2023-03-14T01:24:04.349Z,37.42
2023-03-14T01:26:36.863Z,31.70
2023-03-14T01:29:07.709Z,33.17
2023-03-14T01:31:37.814Z,35.88
2023-03-14T01:34:07.549Z,44.40
2023-03-14T01:36:36.249Z,44.17
2023-03-14T01:39:10.110Z,31.48
2023-03-14T01:41:38.819Z,27.85
2023-03-14T01:44:13.329Z,24.00
2023-03-14T01:46:44.562Z,18.25
2023-03-14T01:49:19.674Z,17.55
2023-03-14T01:51:58.641Z,14.30
2023-03-14T01:54:38.134Z,20.20
2023-03-14T01:57:22.332Z,25.98
2023-03-14T02:00:12.882Z,32.00
2023-03-14T02:02:51.745Z,25.65
2023-03-14T02:05:28.163Z,42.08
2023-03-14T02:08:02.014Z,44.80
2023-03-14T02:10:43.231Z,41.67
2023-03-14T02:13:12.666Z,26.75
2023-03-14T02:16:01.058Z,14.70
2023-03-14T02:18:50.348Z,9.15
2023-03-14T02:21:39.859Z,7.30
2023-03-14T02:24:36.444Z,8.20
2023-03-14T02:27:29.832Z,7.65
2023-03-14T02:30:00.923Z,8.18
2023-03-14T02:32:33.501Z,9.30
2023-03-14T02:35:12.884Z,8.00
2023-03-14T02:37:42.069Z,8.82
2023-03-14T02:40:12.697Z,9.63
2023-03-14T02:42:41.492Z,8.40
2023-03-14T02:45:13.214Z,9.80
2023-03-14T02:47:48.609Z,9.55
2023-03-14T02:50:18.537Z,10.05
2023-03-14T02:52:47.731Z,9.02
2023-03-14T02:55:15.890Z,9.65
2023-03-14T02:57:47.064Z,11.02
2023-03-14T03:00:16.214Z,12.43
2023-03-14T03:02:44.445Z,11.45
2023-03-14T03:05:13.498Z,9.40
2023-03-14T03:07:42.161Z,11.63
2023-03-14T03:10:13.102Z,11.18
2023-03-14T03:15:10.904Z,12.75
2023-03-14T03:17:41.236Z,12.57
2023-03-14T03:20:10.779Z,15.82
2023-03-14T03:25:09.888Z,25.10
2023-03-14T03:27:38.862Z,30.08
2023-03-14T03:30:10.547Z,29.70
2023-03-14T03:32:38.856Z,31.13
2023-03-14T03:35:08.865Z,34.13
2023-03-14T03:37:40.737Z,34.65
2023-03-14T03:40:09.509Z,33.33
2023-03-14T03:42:38.524Z,29.98
2023-03-14T03:45:10.048Z,32.28
2023-03-14T03:47:49.750Z,29.23
2023-03-14T03:50:18.381Z,18.50
2023-03-14T03:52:46.527Z,23.75
2023-03-14T03:55:14.846Z,11.63
2023-03-14T03:57:42.616Z,11.32
2023-03-14T04:00:14.126Z,9.95
2023-03-14T04:02:50.243Z,7.72
2023-03-14T04:05:20.721Z,7.25
2023-03-14T04:07:58.635Z,7.85
2023-03-14T04:10:29.686Z,8.68
2023-03-14T04:13:09.574Z,6.20
2023-03-14T04:15:40.650Z,7.55
2023-03-14T04:18:16.419Z,10.90
2023-03-14T04:20:51.647Z,11.93
2023-03-14T04:23:20.731Z,12.55
2023-03-14T04:25:53.464Z,13.90
2023-03-14T04:28:23.344Z,10.10
2023-03-14T04:30:55.369Z,8.30
2023-03-14T04:33:26.273Z,9.07
2023-03-14T04:35:58.336Z,8.35
2023-03-14T04:38:26.550Z,8.77
2023-03-14T04:40:56.803Z,9.38
2023-03-14T04:43:30.828Z,9.23
2023-03-14T04:46:08.497Z,7.93
2023-03-14T04:48:39.504Z,8.65
2023-03-14T04:51:11.971Z,8.57
2023-03-14T04:53:42.653Z,10.00
2023-03-14T04:56:18.780Z,14.18
2023-03-14T04:58:48.795Z,10.80
2023-03-14T05:01:19.118Z,11.97
2023-03-14T05:04:04.853Z,18.10
2023-03-14T05:06:52.287Z,18.15
2023-03-14T05:09:39.103Z,23.70
2023-03-14T05:12:35.188Z,31.27
2023-03-14T05:15:25.598Z,32.33
2023-03-14T05:18:24.384Z,33.63
2023-03-14T05:21:13.113Z,32.42
2023-03-14T05:24:08.751Z,27.73
2023-03-14T05:26:55.332Z,27.05
2023-03-14T05:29:49.725Z,25.17
2023-03-14T05:32:38.315Z,26.30
2023-03-14T05:35:33.268Z,21.05
2023-03-14T05:38:25.216Z,17.63
2023-03-14T05:41:12.763Z,16.73
2023-03-14T05:44:01.649Z,16.92
2023-03-14T05:47:02.016Z,13.07
2023-03-14T05:49:47.464Z,14.05
2023-03-14T05:52:39.067Z,11.90
2023-03-14T05:55:23.356Z,10.75
2023-03-14T05:58:07.130Z,13.82
2023-03-14T06:00:55.651Z,15.63
2023-03-14T06:06:16.162Z,15.15
2023-03-14T06:08:44.390Z,16.98
2023-03-14T06:11:14.302Z,19.67
2023-03-14T06:13:44.584Z,20.73
2023-03-14T06:16:12.826Z,21.38
2023-03-14T06:18:48.207Z,17.88
2023-03-14T06:21:19.245Z,16.05
2023-03-14T06:23:48.581Z,12.55
2023-03-14T06:26:17.601Z,12.15
2023-03-14T06:31:17.096Z,14.27
2023-03-14T06:33:54.906Z,14.82
2023-03-14T06:36:25.135Z,15.43
2023-03-14T06:38:53.092Z,17.05
2023-03-14T06:41:21.488Z,13.70
2023-03-14T06:43:55.436Z,11.35
2023-03-14T06:46:25.538Z,12.50
2023-03-14T06:48:55.031Z,15.57
2023-03-14T06:51:28.487Z,17.30
2023-03-14T06:53:59.427Z,16.45
2023-03-14T06:56:31.429Z,19.40
2023-03-14T06:59:01.595Z,19.25
2023-03-14T07:01:34.097Z,14.95
2023-03-14T07:04:11.327Z,16.02
2023-03-14T07:06:45.615Z,15.50
2023-03-14T07:09:13.575Z,13.55
2023-03-14T07:11:45.701Z,17.27
2023-03-14T07:14:14.037Z,15.80
2023-03-14T07:16:41.929Z,12.15
2023-03-14T07:19:09.846Z,10.32
2023-03-14T07:21:42.222Z,13.23
2023-03-14T07:24:14.312Z,12.40
2023-03-14T07:26:44.534Z,13.10
2023-03-14T07:29:12.876Z,11.73
2023-03-14T07:31:42.208Z,17.83
2023-03-14T07:34:10.133Z,15.10
2023-03-14T07:36:42.706Z,12.15
2023-03-14T07:39:11.620Z,15.48
2023-03-14T07:41:46.690Z,15.20
2023-03-14T07:44:42.196Z,13.00
2023-03-14T07:47:11.525Z,9.80
2023-03-14T07:49:41.085Z,6.23
2023-03-14T07:52:08.932Z,10.98
2023-03-14T07:54:38.869Z,50.70
2023-03-14T07:57:13.926Z,14.02
2023-03-14T07:59:42.024Z,15.18
2023-03-14T08:02:13.571Z,13.82
2023-03-14T08:04:41.820Z,10.98
2023-03-14T08:07:10.808Z,26.45
2023-03-14T08:09:39.684Z,15.35
2023-03-14T08:12:08.422Z,14.18
2023-03-14T08:14:37.266Z,11.73
2023-03-14T08:17:09.593Z,9.30
2023-03-14T08:19:37.814Z,10.27
2023-03-14T08:22:07.128Z,10.95
2023-03-14T08:24:36.757Z,10.60
2023-03-14T08:27:06.369Z,8.82
2023-03-14T08:29:36.312Z,8.00
2023-03-14T08:32:04.777Z,9.18
2023-03-14T08:34:34.611Z,10.35
2023-03-14T08:37:19.869Z,11.57
2023-03-14T08:39:54.872Z,10.30
2023-03-14T08:42:23.105Z,9.13
2023-03-14T08:44:52.597Z,10.20
2023-03-14T08:47:21.133Z,10.63
2023-03-14T08:49:49.704Z,7.57
2023-03-14T08:52:17.671Z,8.15
2023-03-14T08:54:45.897Z,9.05
2023-03-14T08:57:13.860Z,8.02
2023-03-14T08:59:42.258Z,7.03
2023-03-14T09:02:13.569Z,7.78
2023-03-14T09:04:41.875Z,7.93
2023-03-14T09:07:13.137Z,6.97
2023-03-14T09:09:43.263Z,9.20
2023-03-14T09:12:11.371Z,6.78
2023-03-14T09:14:44.234Z,6.38
2023-03-14T09:17:12.478Z,6.70
2023-03-14T09:19:41.565Z,7.15
2023-03-14T09:22:10.704Z,6.95
2023-03-14T09:24:40.452Z,7.63
2023-03-14T09:27:08.917Z,6.15
2023-03-14T09:29:39.292Z,6.55
2023-03-14T09:32:07.472Z,6.15
2023-03-14T09:34:38.506Z,6.70
2023-03-14T09:37:07.289Z,7.03
2023-03-14T09:39:35.745Z,7.97
2023-03-14T09:42:07.060Z,7.93
2023-03-14T09:44:37.888Z,6.68
2023-03-14T09:47:07.682Z,6.72
2023-03-14T09:49:40.795Z,9.50
2023-03-14T09:52:17.297Z,7.53
2023-03-14T09:55:05.777Z,8.10
2023-03-14T09:57:35.603Z,10.45
2023-03-14T10:00:24.282Z,9.82
2023-03-14T10:03:21.454Z,8.13
2023-03-14T10:05:50.982Z,8.50
2023-03-14T10:08:19.435Z,7.90
2023-03-14T10:10:47.331Z,8.98
2023-03-14T10:13:19.772Z,8.75
2023-03-14T10:15:57.237Z,11.25
2023-03-14T10:18:29.128Z,9.60
2023-03-14T10:21:08.153Z,9.75
2023-03-14T10:23:36.040Z,7.68
2023-03-14T10:26:15.141Z,7.18
2023-03-14T10:28:46.351Z,7.53
2023-03-14T10:31:14.698Z,7.40
2023-03-14T10:33:45.277Z,9.27
2023-03-14T10:36:18.114Z,7.03
2023-03-14T10:38:51.628Z,7.20
2023-03-14T10:41:32.179Z,10.85
2023-03-14T10:44:03.158Z,7.75
2023-03-14T10:46:35.672Z,7.55
2023-03-14T10:49:31.981Z,6.90
2023-03-14T10:52:03.731Z,7.68
2023-03-14T10:54:32.646Z,9.10
2023-03-14T10:57:01.760Z,13.23
2023-03-14T10:59:34.549Z,7.57
2023-03-14T11:02:14.692Z,8.07
2023-03-14T11:05:10.373Z,13.80
2023-03-14T11:07:43.745Z,9.82
2023-03-14T11:10:18.094Z,8.48
2023-03-14T11:12:52.104Z,8.90
2023-03-14T11:15:35.635Z,8.30
2023-03-14T11:18:23.616Z,8.77
2023-03-14T11:21:13.774Z,7.55
2023-03-14T11:23:59.998Z,6.82
2023-03-14T11:26:31.170Z,7.43
2023-03-14T11:29:00.551Z,6.20
2023-03-14T11:31:34.758Z,7.72
2023-03-14T11:34:23.554Z,7.97
2023-03-14T11:37:01.944Z,7.72
2023-03-14T11:39:36.895Z,8.00
2023-03-14T11:42:14.203Z,7.78
2023-03-14T11:44:44.858Z,9.00
2023-03-14T11:47:41.431Z,7.45
2023-03-14T11:50:24.416Z,7.22
2023-03-14T11:53:07.134Z,7.00
2023-03-14T11:55:55.143Z,7.05
2023-03-14T11:58:27.309Z,7.63
2023-03-14T12:00:57.549Z,7.25
2023-03-14T12:03:34.043Z,7.35
2023-03-14T12:06:05.165Z,6.68
2023-03-14T12:09:02.616Z,7.47
2023-03-14T12:11:34.916Z,7.47
2023-03-14T12:14:03.464Z,7.40
2023-03-14T12:16:36.578Z,7.18
2023-03-14T12:19:35.124Z,6.00
2023-03-14T12:22:30.824Z,6.82
2023-03-14T12:25:26.563Z,6.38
2023-03-14T12:27:57.381Z,6.15
2023-03-14T12:30:30.868Z,6.00
2023-03-14T12:33:19.267Z,6.75
2023-03-14T12:35:58.557Z,6.03
2023-03-14T12:38:50.905Z,6.13
2023-03-14T12:41:29.707Z,5.25
2023-03-14T12:43:57.752Z,4.70
2023-03-14T12:46:28.347Z,4.88
2023-03-14T12:49:04.604Z,21.35
2023-03-14T12:51:41.063Z,5.38
2023-03-14T12:54:15.098Z,9.45
2023-03-14T12:57:06.447Z,4.45
2023-03-14T13:02:21.225Z,4.85
2023-03-14T13:05:12.556Z,3.47
2023-03-14T13:07:40.777Z,3.75
2023-03-14T13:10:19.687Z,3.10
2023-03-14T13:13:10.277Z,3.10
2023-03-14T13:15:45.969Z,2.80
2023-03-14T13:18:25.580Z,3.10
2023-03-14T13:21:21.039Z,2.88
2023-03-14T13:24:02.542Z,2.90
2023-03-14T13:29:24.166Z,2.70
2023-03-14T13:32:00.057Z,3.10
2023-03-14T13:34:28.609Z,3.00
2023-03-14T13:37:00.108Z,3.50
2023-03-14T13:39:30.545Z,2.70
2023-03-14T13:42:00.170Z,3.47
2023-03-14T13:44:33.982Z,3.10
2023-03-14T13:47:02.544Z,3.03
2023-03-14T13:49:33.900Z,2.88
2023-03-14T13:54:32.334Z,2.80
2023-03-14T13:57:06.176Z,2.47
2023-03-14T13:59:36.188Z,2.33
2023-03-14T14:02:18.689Z,2.70
2023-03-14T14:04:47.159Z,5.80
2023-03-14T14:07:19.637Z,3.15
2023-03-14T14:09:50.580Z,3.13
2023-03-14T14:12:29.387Z,3.17
2023-03-14T14:15:03.770Z,3.05
2023-03-14T14:17:44.995Z,2.97
2023-03-14T14:20:40.033Z,3.28
2023-03-14T14:23:26.374Z,3.92
2023-03-14T14:25:54.947Z,3.78
2023-03-14T14:28:31.414Z,4.97
2023-03-14T14:31:16.231Z,3.28
2023-03-14T14:33:50.685Z,3.58
2023-03-14T14:36:39.385Z,3.88
2023-03-14T14:39:33.573Z,3.17
2023-03-14T14:42:01.767Z,3.38
2023-03-14T14:44:33.009Z,3.78
2023-03-14T14:47:05.923Z,3.63
2023-03-14T14:49:34.885Z,3.40
2023-03-14T14:52:18.330Z,3.88
2023-03-14T14:54:59.812Z,3.40
2023-03-14T14:57:31.534Z,3.70
2023-03-14T15:00:07.650Z,3.50
2023-03-14T15:02:45.648Z,3.92
2023-03-14T15:05:18.546Z,3.92
2023-03-14T15:07:48.051Z,3.55
2023-03-14T15:10:42.701Z,4.00
2023-03-14T15:13:14.164Z,3.60
2023-03-14T15:15:43.378Z,3.80
2023-03-14T15:18:17.282Z,3.92
2023-03-14T15:20:45.735Z,4.18
2023-03-14T15:23:16.967Z,3.20
2023-03-14T15:28:25.767Z,4.05
2023-03-14T15:30:55.776Z,5.40
2023-03-14T15:33:25.413Z,5.90
2023-03-14T15:35:53.712Z,7.32
2023-03-14T15:38:24.227Z,6.32
2023-03-14T15:40:56.478Z,5.38
2023-03-14T15:43:26.051Z,5.47
2023-03-14T15:45:58.505Z,4.70
2023-03-14T15:48:28.100Z,7.53
2023-03-14T15:50:56.525Z,8.95
2023-03-14T15:53:24.954Z,7.75
2023-03-14T15:55:53.194Z,5.75
2023-03-14T15:58:22.019Z,5.57
2023-03-14T16:00:50.553Z,4.93
2023-03-14T16:03:19.791Z,4.82
2023-03-14T16:05:48.187Z,5.18
2023-03-14T16:08:16.142Z,5.10
2023-03-14T16:10:46.427Z,5.43
2023-03-14T16:13:14.858Z,5.40
2023-03-14T16:15:43.178Z,5.57
2023-03-14T16:18:21.047Z,6.30
2023-03-14T16:20:58.031Z,5.38
2023-03-14T16:23:27.246Z,6.25
2023-03-14T16:25:55.213Z,6.03
2023-03-14T16:28:23.110Z,6.60
2023-03-14T16:30:50.852Z,5.47
2023-03-14T16:33:19.761Z,5.70
2023-03-14T16:35:57.974Z,6.65
2023-03-14T16:38:29.514Z,7.40
2023-03-14T16:41:04.026Z,8.18
2023-03-14T16:43:34.374Z,7.25
2023-03-14T16:46:02.798Z,7.22
2023-03-14T16:48:39.681Z,6.78
2023-03-14T16:51:08.668Z,8.30
2023-03-14T16:53:36.979Z,7.72
2023-03-14T16:56:07.344Z,7.32
2023-03-14T16:58:35.928Z,6.75
2023-03-14T17:01:11.687Z,5.15
2023-03-14T17:03:44.052Z,5.35
2023-03-14T17:06:16.000Z,5.75
2023-03-14T17:08:44.494Z,5.30
2023-03-14T17:11:12.213Z,5.18
2023-03-14T17:13:40.180Z,5.40
2023-03-14T17:16:09.971Z,5.88
2023-03-14T17:18:37.748Z,5.68
2023-03-14T17:21:10.407Z,6.70
2023-03-14T17:23:41.278Z,7.30
2023-03-14T17:26:09.179Z,7.07
2023-03-14T17:28:37.923Z,6.93
2023-03-14T17:31:16.844Z,6.80
2023-03-14T17:33:53.621Z,8.50
2023-03-14T17:36:25.423Z,8.85
2023-03-14T17:38:56.392Z,8.30
2023-03-14T17:41:26.172Z,9.85
2023-03-14T17:43:55.423Z,9.10
2023-03-14T17:46:26.980Z,9.48
2023-03-14T17:48:55.842Z,9.57
2023-03-14T17:51:28.414Z,9.57
2023-03-14T17:53:56.973Z,8.90
2023-03-14T17:56:26.027Z,8.77
2023-03-14T18:01:28.949Z,9.18
2023-03-14T18:04:02.376Z,8.93
2023-03-14T18:06:31.858Z,8.82
2023-03-14T18:09:01.818Z,8.45
2023-03-14T18:11:32.989Z,8.10
2023-03-14T18:14:07.953Z,8.32
2023-03-14T18:16:42.146Z,5.87
2023-03-14T18:19:10.386Z,6.93
2023-03-14T18:21:40.782Z,7.25
2023-03-14T18:24:11.458Z,6.80
2023-03-14T18:26:40.741Z,6.63
2023-03-14T18:29:08.594Z,6.60
2023-03-14T18:31:38.158Z,6.28
2023-03-14T18:34:06.756Z,6.18
2023-03-14T18:36:36.938Z,6.43
2023-03-14T18:39:07.578Z,6.30
2023-03-14T18:41:35.690Z,6.13
2023-03-14T18:44:04.030Z,8.23
2023-03-14T18:46:32.461Z,8.07
2023-03-14T18:49:04.971Z,6.18
2023-03-14T18:51:35.040Z,6.32
2023-03-14T18:54:08.724Z,6.65
2023-03-14T18:56:39.060Z,6.32
2023-03-14T18:59:07.519Z,5.47
2023-03-14T19:01:37.413Z,6.55
2023-03-14T19:04:05.470Z,6.82
2023-03-14T19:06:36.447Z,6.55
2023-03-14T19:09:06.456Z,6.43
2023-03-14T19:11:35.064Z,6.47
2023-03-14T19:14:05.860Z,5.77
2023-03-14T19:16:34.930Z,6.25
2023-03-14T19:19:03.939Z,5.95
2023-03-14T19:21:34.913Z,5.30
2023-03-14T19:24:05.441Z,5.63
2023-03-14T19:26:35.650Z,5.90
2023-03-14T19:31:35.112Z,5.80
2023-03-14T19:34:04.401Z,5.55
2023-03-14T19:36:34.823Z,5.43
2023-03-14T19:39:03.158Z,6.43
2023-03-14T19:41:32.034Z,8.85
2023-03-14T19:44:01.419Z,12.15
2023-03-14T19:46:33.597Z,10.07
2023-03-14T19:49:02.851Z,6.95
2023-03-14T19:51:36.117Z,7.20
2023-03-14T19:54:06.155Z,10.13
2023-03-14T19:56:35.248Z,9.23
2023-03-14T19:59:05.230Z,8.77
2023-03-14T20:01:35.636Z,9.27
2023-03-14T20:04:06.865Z,8.60
2023-03-14T20:06:35.224Z,9.00
2023-03-14T20:09:06.107Z,8.25
2023-03-14T20:11:44.030Z,12.85
2023-03-14T20:14:14.927Z,13.35
2023-03-14T20:19:15.644Z,10.77
2023-03-14T20:21:43.753Z,15.27
2023-03-14T20:24:11.958Z,15.60
2023-03-14T20:26:43.126Z,14.20
2023-03-14T20:29:11.588Z,12.05
2023-03-14T20:31:40.542Z,10.65
2023-03-14T20:34:08.442Z,7.60
2023-03-14T20:36:38.397Z,10.75
2023-03-14T20:39:06.234Z,7.35
2023-03-14T20:41:44.261Z,7.28
2023-03-14T20:44:14.581Z,7.30
2023-03-14T20:46:42.955Z,7.63
2023-03-14T20:49:10.981Z,8.27
2023-03-14T20:51:39.881Z,8.60
2023-03-14T20:54:14.270Z,9.05
2023-03-14T20:56:46.444Z,8.32
2023-03-14T20:59:14.990Z,8.25
2023-03-14T21:04:34.173Z,6.88
2023-03-14T21:07:03.381Z,7.82
2023-03-14T21:09:32.132Z,7.15
2023-03-14T21:12:00.633Z,11.90
2023-03-14T21:14:28.991Z,7.78
2023-03-14T21:16:58.882Z,7.32
2023-03-14T21:19:34.232Z,5.97
2023-03-14T21:22:04.171Z,5.70
2023-03-14T21:24:32.276Z,5.97
2023-03-14T21:27:00.849Z,6.13
2023-03-14T21:29:29.752Z,6.40
2023-03-14T21:32:01.575Z,5.97
2023-03-14T21:34:30.967Z,5.97
2023-03-14T21:36:59.301Z,6.07
2023-03-14T21:39:27.506Z,5.60
2023-03-14T21:41:56.499Z,6.20
2023-03-14T21:44:24.264Z,6.70
2023-03-14T21:46:52.109Z,8.60
2023-03-14T21:49:20.696Z,6.68
2023-03-14T21:51:49.146Z,5.75
2023-03-14T21:54:17.005Z,6.10
2023-03-14T21:56:45.269Z,5.80
2023-03-14T21:59:15.028Z,6.32
2023-03-14T22:01:44.742Z,4.93
2023-03-14T22:04:13.400Z,6.35
2023-03-14T22:06:42.065Z,5.47
2023-03-14T22:09:10.293Z,5.75
2023-03-14T22:11:43.694Z,6.03
2023-03-14T22:14:11.426Z,5.38
2023-03-14T22:16:39.726Z,5.65
2023-03-14T22:19:13.884Z,6.40
2023-03-14T22:21:42.949Z,6.25
2023-03-14T22:24:12.386Z,6.25
2023-03-14T22:26:40.765Z,5.85
2023-03-14T22:29:08.795Z,5.82
2023-03-14T22:31:38.894Z,5.57
2023-03-14T22:34:07.331Z,5.75
2023-03-14T22:36:37.723Z,5.85
2023-03-14T22:39:07.372Z,6.13
2023-03-14T22:41:37.366Z,5.65
2023-03-14T22:44:09.310Z,6.18
2023-03-14T22:46:38.605Z,5.90
2023-03-14T22:49:08.279Z,5.57
2023-03-14T22:51:37.703Z,6.75
2023-03-14T22:54:05.624Z,6.10
2023-03-14T22:56:35.001Z,5.28
2023-03-14T22:59:03.548Z,5.60
2023-03-14T23:01:33.907Z,5.15
2023-03-14T23:04:02.631Z,5.38
2023-03-14T23:06:30.620Z,5.70
2023-03-14T23:09:02.324Z,5.43
2023-03-14T23:11:30.666Z,5.30
2023-03-14T23:14:00.629Z,5.63
2023-03-14T23:16:39.613Z,5.47
2023-03-14T23:19:11.030Z,5.90
2023-03-14T23:21:41.781Z,5.57
2023-03-14T23:24:10.526Z,5.47
2023-03-14T23:26:39.102Z,5.22
2023-03-14T23:29:08.452Z,5.13
2023-03-14T23:31:36.822Z,5.32
2023-03-14T23:34:05.106Z,5.03
2023-03-14T23:36:37.391Z,5.20
2023-03-14T23:39:06.109Z,5.47
2023-03-14T23:41:33.884Z,5.60
2023-03-14T23:44:02.675Z,5.00
2023-03-14T23:46:38.105Z,4.90
2023-03-14T23:49:05.948Z,5.05
2023-03-14T23:51:34.481Z,4.22
2023-03-14T23:54:02.245Z,4.15
2023-03-14T23:56:31.094Z,4.70
2023-03-14T23:58:59.826Z,4.85
